createdAt,value
2022-11-16T04:51:46.944Z,132.67
2022-11-16T04:54:15.696Z,133.37
2022-11-16T04:56:44.499Z,134.13
2022-11-16T04:59:13.486Z,139.47
2022-11-16T05:01:59.532Z,139.03
2022-11-16T05:04:27.990Z,134.60
2022-11-16T05:06:58.036Z,139.50
2022-11-16T05:09:26.808Z,141.53
2022-11-16T05:11:55.268Z,162.83
2022-11-16T05:14:23.600Z,144.67
2022-11-16T05:16:52.332Z,147.47
2022-11-16T05:19:38.191Z,159.17
2022-11-16T05:22:08.415Z,142.30
2022-11-16T05:24:38.122Z,150.70
2022-11-16T05:27:08.931Z,144.07
2022-11-16T05:29:37.683Z,142.63
2022-11-16T05:32:07.220Z,155.43
2022-11-16T05:34:36.264Z,133.43
2022-11-16T05:37:07.708Z,155.63
2022-11-16T05:39:36.819Z,164.30
2022-11-16T05:42:06.258Z,149.07
2022-11-16T05:44:35.315Z,163.53
2022-11-16T05:47:04.277Z,152.93
2022-11-16T05:49:32.783Z,145.90
2022-11-16T05:52:01.563Z,154.23
2022-11-16T05:54:31.446Z,142.03
2022-11-16T05:56:59.943Z,144.60
2022-11-16T05:59:31.394Z,148.13
2022-11-16T06:02:00.505Z,155.53
2022-11-16T06:04:31.473Z,144.47
2022-11-16T06:07:00.661Z,150.93
2022-11-16T06:09:30.951Z,162.90
2022-11-16T06:11:59.268Z,157.53
2022-11-16T06:14:27.967Z,151.67
2022-11-16T06:16:56.296Z,142.80
2022-11-16T06:19:28.281Z,141.10
2022-11-16T06:22:00.761Z,173.07
2022-11-16T06:24:30.794Z,157.40
2022-11-16T06:27:00.092Z,152.23
2022-11-16T06:29:29.090Z,146.93
2022-11-16T06:31:57.598Z,138.53
2022-11-16T06:34:26.106Z,143.07
2022-11-16T06:36:54.597Z,158.93
2022-11-16T06:39:23.256Z,144.97
2022-11-16T06:41:53.106Z,158.50
2022-11-16T06:44:23.235Z,140.37
2022-11-16T06:46:51.863Z,146.33
2022-11-16T06:49:20.464Z,142.27
2022-11-16T06:51:49.162Z,152.10
2022-11-16T06:54:17.663Z,147.63
2022-11-16T06:56:46.454Z,171.83
2022-11-16T06:59:16.641Z,149.10
2022-11-16T07:01:46.359Z,137.37
2022-11-16T07:04:14.931Z,157.23
2022-11-16T07:06:43.559Z,167.73
2022-11-16T07:09:15.465Z,171.00
2022-11-16T07:11:45.049Z,158.50
2022-11-16T07:14:13.723Z,176.37
2022-11-16T07:16:43.738Z,162.17
2022-11-16T07:19:12.583Z,176.50
2022-11-16T07:21:41.319Z,173.53
2022-11-16T07:24:09.841Z,172.97
2022-11-16T07:26:39.046Z,173.93
2022-11-16T07:29:07.770Z,183.63
2022-11-16T07:31:36.408Z,187.10
2022-11-16T07:34:06.661Z,163.63
2022-11-16T07:36:35.336Z,191.37
2022-11-16T07:39:03.800Z,165.03
2022-11-16T07:41:32.359Z,151.07
2022-11-16T07:44:01.348Z,159.40
2022-11-16T07:46:47.414Z,166.37
2022-11-16T07:49:19.675Z,177.17
2022-11-16T07:51:48.337Z,169.37
2022-11-16T07:54:17.486Z,186.87
2022-11-16T07:56:46.275Z,171.80
2022-11-16T07:59:14.742Z,169.53
2022-11-16T08:01:43.371Z,187.13
2022-11-16T08:04:11.936Z,192.37
2022-11-16T08:06:41.911Z,192.20
2022-11-16T08:09:12.120Z,178.17
2022-11-16T08:11:40.799Z,193.53
2022-11-16T08:14:09.469Z,198.13
2022-11-16T08:16:37.963Z,199.63
2022-11-16T08:19:06.648Z,190.40
2022-11-16T08:21:36.121Z,195.03
2022-11-16T08:24:06.792Z,185.40
2022-11-16T08:26:35.409Z,184.17
2022-11-16T08:29:03.895Z,201.97
2022-11-16T08:31:32.320Z,190.47
2022-11-16T08:34:01.924Z,180.43
2022-11-16T08:36:30.294Z,193.80
2022-11-16T08:38:58.664Z,193.90
2022-11-16T08:41:28.679Z,178.80
2022-11-16T08:43:59.407Z,180.80
2022-11-16T08:46:28.047Z,183.87
2022-11-16T08:48:57.981Z,168.33
2022-11-16T08:51:27.659Z,189.30
2022-11-16T08:54:00.338Z,184.77
2022-11-16T08:56:30.551Z,178.47
2022-11-16T08:58:59.686Z,196.80
2022-11-16T09:01:30.223Z,212.53
2022-11-16T09:03:58.766Z,189.53
2022-11-16T09:06:28.806Z,185.57
2022-11-16T09:08:58.359Z,177.73
2022-11-16T09:11:27.699Z,193.33
2022-11-16T09:13:59.159Z,188.13
2022-11-16T09:16:27.992Z,198.13
2022-11-16T09:18:57.199Z,190.73
2022-11-16T09:21:27.718Z,189.97
2022-11-16T09:23:57.473Z,189.67
2022-11-16T09:26:26.845Z,188.77
2022-11-16T09:28:59.178Z,198.27
2022-11-16T09:31:28.559Z,178.13
2022-11-16T09:33:59.096Z,171.50
2022-11-16T09:36:29.024Z,181.83
2022-11-16T09:42:02.248Z,167.07
2022-11-16T09:44:56.117Z,176.77
2022-11-16T09:47:41.382Z,156.23
2022-11-16T09:50:25.822Z,149.23
2022-11-16T09:52:56.738Z,159.33
2022-11-16T09:55:30.186Z,125.23
2022-11-16T09:58:02.797Z,125.53
2022-11-16T10:00:36.444Z,112.37
2022-11-16T10:03:08.074Z,125.17
2022-11-16T10:05:42.041Z,102.73
2022-11-16T10:08:15.911Z,80.63
2022-11-16T10:10:56.680Z,72.23
2022-11-16T10:13:42.679Z,68.00
2022-11-16T10:16:21.978Z,67.37
2022-11-16T10:18:59.939Z,71.07
2022-11-16T10:21:46.019Z,67.93
2022-11-16T10:24:36.999Z,70.63
2022-11-16T10:27:41.720Z,72.40
2022-11-16T10:30:14.028Z,76.47
2022-11-16T10:32:53.499Z,83.30
2022-11-16T10:35:30.029Z,68.40
2022-11-16T10:38:00.495Z,71.27
2022-11-16T10:40:37.718Z,79.23
2022-11-16T10:43:12.833Z,58.80
2022-11-16T10:45:45.213Z,69.23
2022-11-16T10:48:24.279Z,73.23
2022-11-16T10:50:54.187Z,68.63
2022-11-16T10:53:29.578Z,69.60
2022-11-16T10:56:15.463Z,65.93
2022-11-16T10:58:56.288Z,74.07
2022-11-16T11:01:34.509Z,64.53
2022-11-16T11:04:22.127Z,72.13
2022-11-16T11:06:53.522Z,63.97
2022-11-16T11:09:26.686Z,54.67
2022-11-16T11:12:21.239Z,60.43
2022-11-16T11:15:02.019Z,63.90
2022-11-16T11:17:31.636Z,63.03
2022-11-16T11:20:05.671Z,62.90
2022-11-16T11:22:36.780Z,62.07
2022-11-16T11:25:08.479Z,63.50
2022-11-16T11:27:40.059Z,55.33
2022-11-16T11:30:21.049Z,55.30
2022-11-16T11:32:50.227Z,55.67
2022-11-16T11:35:31.260Z,52.63
2022-11-16T11:38:08.097Z,47.87
2022-11-16T11:40:37.149Z,51.17
2022-11-16T11:43:07.547Z,44.57
2022-11-16T11:45:44.051Z,42.13
2022-11-16T11:48:32.879Z,46.93
2022-11-16T11:51:11.061Z,42.93
2022-11-16T11:53:55.352Z,39.67
2022-11-16T11:56:25.190Z,38.70
2022-11-16T11:58:55.664Z,35.83
2022-11-16T12:01:51.539Z,36.93
2022-11-16T12:04:58.124Z,38.63
2022-11-16T12:07:45.509Z,34.73
2022-11-16T12:10:20.375Z,35.97
2022-11-16T12:13:05.140Z,36.03
2022-11-16T12:16:09.038Z,37.87
2022-11-16T12:18:54.557Z,34.07
2022-11-16T12:21:32.007Z,37.07
2022-11-16T12:24:19.526Z,37.53
2022-11-16T12:27:01.136Z,36.57
2022-11-16T12:29:42.146Z,34.83
2022-11-16T12:32:45.739Z,35.00
2022-11-16T12:35:41.955Z,36.83
2022-11-16T12:38:29.043Z,36.03
2022-11-16T12:41:19.819Z,34.00
2022-11-16T12:43:56.215Z,38.40
2022-11-16T12:46:36.045Z,39.53
2022-11-16T12:49:35.980Z,38.30
2022-11-16T12:52:17.907Z,37.40
2022-11-16T12:55:24.968Z,40.20
2022-11-16T12:57:52.405Z,41.70
2022-11-16T13:00:21.552Z,39.00
2022-11-16T13:03:13.375Z,35.33
2022-11-16T13:05:48.320Z,37.67
2022-11-16T13:08:24.755Z,42.33
2022-11-16T13:11:06.818Z,38.33
2022-11-16T13:13:38.652Z,39.93
2022-11-16T13:16:10.219Z,35.73
2022-11-16T13:18:43.004Z,34.33
2022-11-16T13:21:21.342Z,37.57
2022-11-16T13:24:01.720Z,38.83
2022-11-16T13:26:35.342Z,35.93
2022-11-16T13:29:16.800Z,33.97
2022-11-16T13:31:54.581Z,32.93
2022-11-16T13:34:27.382Z,33.30
2022-11-16T13:36:56.240Z,100.00
2022-11-16T13:40:05.049Z,33.40
2022-11-16T13:42:36.088Z,31.93
2022-11-16T13:45:10.648Z,36.20
2022-11-16T13:47:39.768Z,31.70
2022-11-16T13:50:19.964Z,30.47
2022-11-16T13:53:46.253Z,29.37
2022-11-16T13:55:44.346Z,29.87
2022-11-16T13:58:22.445Z,31.47
2022-11-16T14:01:03.886Z,26.37
2022-11-16T14:03:39.672Z,27.63
2022-11-16T14:06:46.851Z,26.67
2022-11-16T14:09:43.178Z,22.97
2022-11-16T14:12:59.836Z,25.63
2022-11-16T14:15:36.988Z,27.60
2022-11-16T14:18:37.350Z,30.40
2022-11-16T14:21:33.265Z,30.40
2022-11-16T14:24:15.746Z,27.87
2022-11-16T14:26:54.099Z,27.40
2022-11-16T14:29:48.937Z,27.97
2022-11-16T14:32:23.698Z,22.53
2022-11-16T14:34:56.597Z,25.00
2022-11-16T14:37:36.085Z,26.47
2022-11-16T14:40:11.457Z,23.10
2022-11-16T14:43:14.842Z,27.73
2022-11-16T14:45:40.137Z,28.53
2022-11-16T14:48:17.938Z,30.07
2022-11-16T14:51:00.421Z,23.53
2022-11-16T14:53:32.084Z,26.63
2022-11-16T14:56:09.606Z,25.90
2022-11-16T14:58:40.149Z,29.70
2022-11-16T15:01:15.695Z,23.93
2022-11-16T15:03:51.939Z,31.47
2022-11-16T15:06:22.982Z,29.07
2022-11-16T15:08:55.507Z,29.77
2022-11-16T15:11:48.692Z,29.13
2022-11-16T15:14:21.082Z,26.60
2022-11-16T15:16:54.454Z,29.77
2022-11-16T15:19:23.674Z,29.20
2022-11-16T15:21:55.913Z,29.23
2022-11-16T15:24:31.419Z,42.83
2022-11-16T15:27:12.190Z,32.10
2022-11-16T15:29:40.950Z,33.17
2022-11-16T15:32:17.280Z,33.57
2022-11-16T15:34:52.511Z,31.70
2022-11-16T15:37:30.748Z,37.60
2022-11-16T15:40:00.808Z,30.50
2022-11-16T15:42:29.870Z,31.70
2022-11-16T15:45:00.590Z,31.13
2022-11-16T15:47:29.589Z,32.83
2022-11-16T15:49:58.098Z,33.27
2022-11-16T15:52:47.346Z,32.27
2022-11-16T15:55:25.208Z,31.13
2022-11-16T15:58:16.601Z,31.30
2022-11-16T16:00:50.067Z,33.70
2022-11-16T16:03:24.299Z,30.73
2022-11-16T16:05:53.806Z,39.30
2022-11-16T16:08:33.236Z,30.43
2022-11-16T16:11:08.210Z,29.60
2022-11-16T16:13:39.296Z,33.53
2022-11-16T16:16:28.098Z,36.07
2022-11-16T16:19:03.679Z,34.73
2022-11-16T16:21:46.652Z,29.47
2022-11-16T16:24:38.611Z,30.50
2022-11-16T16:27:18.054Z,32.93
2022-11-16T16:29:47.438Z,30.40
2022-11-16T16:32:25.315Z,29.03
2022-11-16T16:34:55.055Z,29.33
2022-11-16T16:37:26.934Z,29.80
2022-11-16T16:39:57.734Z,29.73
2022-11-16T16:42:26.895Z,33.50
2022-11-16T16:44:56.057Z,36.03
2022-11-16T16:47:24.658Z,32.83
2022-11-16T16:49:53.942Z,32.00
2022-11-16T16:52:23.065Z,43.27
2022-11-16T16:54:52.614Z,37.97
2022-11-16T16:57:22.650Z,39.60
2022-11-16T16:59:51.261Z,44.13
2022-11-16T17:02:20.265Z,40.20
2022-11-16T17:04:49.498Z,34.13
2022-11-16T17:07:18.615Z,43.27
2022-11-16T17:09:48.485Z,42.07
2022-11-16T17:12:17.038Z,40.40
2022-11-16T17:14:51.685Z,34.23
2022-11-16T17:17:20.987Z,34.17
2022-11-16T17:19:49.687Z,34.90
2022-11-16T17:22:19.200Z,35.07
2022-11-16T17:24:47.760Z,33.47
2022-11-16T17:27:16.259Z,33.93
2022-11-16T17:29:46.289Z,31.07
2022-11-16T17:32:15.309Z,33.20
2022-11-16T17:34:43.808Z,34.87
2022-11-16T17:37:13.902Z,32.87
2022-11-16T17:39:42.539Z,32.10
2022-11-16T17:42:11.345Z,25.30
2022-11-16T17:44:39.967Z,27.03
2022-11-16T17:47:10.038Z,28.97
2022-11-16T17:49:38.639Z,32.43
2022-11-16T17:52:07.662Z,27.60
2022-11-16T17:54:36.336Z,30.10
2022-11-16T17:57:05.068Z,28.80
2022-11-16T17:59:33.776Z,33.63
2022-11-16T18:02:02.382Z,27.83
2022-11-16T18:04:32.389Z,28.00
2022-11-16T18:07:02.953Z,27.93
2022-11-16T18:09:32.260Z,33.40
2022-11-16T18:12:01.049Z,28.73
2022-11-16T18:14:29.764Z,24.20
2022-11-16T18:16:58.494Z,24.40
2022-11-16T18:19:28.150Z,25.63
2022-11-16T18:21:58.481Z,20.97
2022-11-16T18:24:26.982Z,25.97
2022-11-16T18:26:55.405Z,22.23
2022-11-16T18:29:23.940Z,19.07
2022-11-16T18:31:52.485Z,21.63
2022-11-16T18:34:21.892Z,20.40
2022-11-16T18:36:51.097Z,18.27
2022-11-16T18:39:21.114Z,17.30
2022-11-16T18:41:55.258Z,17.23
2022-11-16T18:44:26.812Z,16.53
2022-11-16T18:46:55.449Z,18.93
2022-11-16T18:49:23.875Z,15.97
2022-11-16T18:51:52.537Z,15.57
2022-11-16T18:54:23.159Z,13.70
2022-11-16T18:56:51.683Z,12.53
2022-11-16T18:59:20.360Z,13.90
2022-11-16T19:01:48.930Z,14.73
2022-11-16T19:04:17.549Z,14.23
2022-11-16T19:06:46.050Z,13.37
2022-11-16T19:09:14.695Z,12.43
2022-11-16T19:11:44.885Z,12.40
2022-11-16T19:14:13.629Z,12.57
2022-11-16T19:16:52.478Z,14.00
2022-11-16T19:19:23.075Z,13.53
2022-11-16T19:21:52.174Z,12.40
2022-11-16T19:24:20.762Z,15.23
2022-11-16T19:26:50.652Z,15.17
2022-11-16T19:29:19.181Z,19.00
2022-11-16T19:31:47.765Z,12.50
2022-11-16T19:34:18.336Z,12.87
2022-11-16T19:36:47.388Z,11.47
2022-11-16T19:39:16.914Z,11.87
2022-11-16T19:41:45.510Z,12.13
2022-11-16T19:44:16.359Z,9.87
2022-11-16T19:46:45.219Z,13.10
2022-11-16T19:49:20.002Z,9.67
2022-11-16T19:51:49.328Z,11.87
2022-11-16T19:54:17.936Z,10.23
2022-11-16T19:56:53.648Z,15.83
2022-11-16T19:59:25.109Z,10.53
2022-11-16T20:01:53.835Z,9.43
2022-11-16T20:04:22.329Z,9.03
2022-11-16T20:06:52.372Z,9.67
2022-11-16T20:09:21.237Z,9.43
2022-11-16T20:11:49.985Z,8.73
2022-11-16T20:14:21.397Z,11.77
2022-11-16T20:16:51.400Z,11.70
2022-11-16T20:19:20.996Z,9.47
2022-11-16T20:21:49.952Z,10.63
2022-11-16T20:24:20.116Z,10.60
2022-11-16T20:26:49.851Z,10.10
2022-11-16T20:29:27.546Z,10.43
2022-11-16T20:31:57.829Z,10.83
2022-11-16T20:34:26.652Z,9.63
2022-11-16T20:36:55.174Z,12.23
2022-11-16T20:39:24.192Z,11.30
2022-11-16T20:41:53.012Z,10.37
2022-11-16T20:44:22.963Z,9.57
2022-11-16T20:46:52.893Z,9.40
2022-11-16T20:49:22.824Z,9.40
2022-11-16T20:51:52.958Z,10.27
2022-11-16T20:54:21.994Z,8.70
2022-11-16T20:56:52.365Z,11.70
2022-11-16T20:59:21.200Z,10.80
2022-11-16T21:01:53.615Z,9.40
2022-11-16T21:04:24.996Z,9.97
2022-11-16T21:06:54.133Z,10.77
2022-11-16T21:09:23.960Z,10.10
2022-11-16T21:12:10.130Z,10.30
2022-11-16T21:14:41.274Z,10.63
2022-11-16T21:17:09.915Z,11.57
2022-11-16T21:19:39.956Z,9.80
2022-11-16T21:22:08.793Z,11.63
2022-11-16T21:24:37.325Z,10.50
2022-11-16T21:27:07.145Z,10.27
2022-11-16T21:29:35.950Z,10.70
2022-11-16T21:32:04.421Z,14.63
2022-11-16T21:34:38.765Z,10.30
2022-11-16T21:37:09.949Z,9.63
2022-11-16T21:39:39.038Z,10.90
2022-11-16T21:42:07.556Z,10.83
2022-11-16T21:44:43.063Z,12.00
2022-11-16T21:47:14.981Z,9.43
2022-11-16T21:50:08.597Z,10.37
2022-11-16T21:52:33.369Z,12.73
2022-11-16T21:55:01.948Z,10.97
2022-11-16T21:57:30.458Z,8.83
2022-11-16T21:59:58.794Z,10.67
2022-11-16T22:02:27.306Z,10.80
2022-11-16T22:05:13.156Z,11.03
2022-11-16T22:07:44.110Z,12.10
2022-11-16T22:10:13.985Z,11.63
2022-11-16T22:12:42.697Z,10.80
2022-11-16T22:15:12.027Z,9.83
2022-11-16T22:17:44.566Z,11.37
2022-11-16T22:20:13.304Z,10.93
2022-11-16T22:22:43.435Z,11.43
2022-11-16T22:25:13.970Z,10.77
2022-11-16T22:28:06.086Z,10.10
2022-11-16T22:30:31.315Z,9.57
2022-11-16T22:33:00.468Z,7.97
2022-11-16T22:35:28.967Z,10.00
2022-11-16T22:37:59.425Z,10.00
2022-11-16T22:40:27.868Z,8.97
2022-11-16T22:42:58.917Z,10.63
2022-11-16T22:45:27.926Z,9.33
2022-11-16T22:47:56.674Z,9.37
2022-11-16T22:50:25.308Z,10.27
2022-11-16T22:52:53.851Z,8.97
2022-11-16T22:55:23.944Z,10.47
2022-11-16T22:57:52.479Z,10.33
2022-11-16T23:00:21.626Z,9.97
2022-11-16T23:02:50.385Z,10.07
2022-11-16T23:05:21.360Z,10.87
2022-11-16T23:07:49.837Z,8.87
2022-11-16T23:10:18.451Z,10.43
2022-11-16T23:13:07.346Z,11.57
2022-11-16T23:15:50.931Z,11.73
2022-11-16T23:18:19.976Z,9.97
2022-11-16T23:21:20.392Z,13.03
2022-11-16T23:24:06.205Z,12.07
2022-11-16T23:26:52.233Z,11.10
2022-11-16T23:29:22.113Z,11.77
2022-11-16T23:31:50.610Z,10.73
2022-11-16T23:34:20.411Z,11.17
2022-11-16T23:36:48.842Z,11.57
2022-11-16T23:39:18.701Z,13.93
2022-11-16T23:42:04.864Z,11.57
2022-11-16T23:44:35.197Z,13.27
2022-11-16T23:47:03.758Z,11.93
2022-11-16T23:49:32.362Z,12.70
